Time;durP1;ratioP1;P1;durP2;ratioP2;P2;SDS_P1;SDS_P2;PMS_P1;PMS_P2;Temp;Humidity;BMP_temperature;BMP_pressure;BME280_temperature;BME280_humidity;BME280_pressure;Samples;Min_cycle;Max_cycle;Signal;HPM_P1;HPM_P2
2021/05/13 00:02:00;;;;;;;6.72;4.95;;;15.10;99.90;;;;;;4936538;29;20027;-71
2021/05/13 00:04:26;;;;;;;6.07;4.68;;;15.10;99.90;;;;;;4920831;29;20020;-71
2021/05/13 00:06:52;;;;;;;12.35;4.80;;;15.00;99.90;;;;;;4937638;29;20414;-71
2021/05/13 00:09:18;;;;;;;7.00;5.20;;;15.00;99.90;;;;;;4937806;29;20028;-71
2021/05/13 00:11:47;;;;;;;7.70;5.32;;;14.90;99.90;;;;;;4937707;29;20111;-70
2021/05/13 00:14:16;;;;;;;7.47;5.70;;;14.90;99.90;;;;;;4937514;29;20603;-69
2021/05/13 00:16:42;;;;;;;8.93;5.72;;;14.90;99.90;;;;;;4937538;29;20028;-69
2021/05/13 00:19:11;;;;;;;6.95;5.43;;;14.90;99.90;;;;;;4937769;29;20012;-71
2021/05/13 00:21:40;;;;;;;8.75;5.72;;;14.80;99.90;;;;;;4937722;29;20028;-71
2021/05/13 00:24:07;;;;;;;7.40;6.20;;;14.80;99.90;;;;;;4937483;29;20034;-71
2021/05/13 00:26:38;;;;;;;7.82;5.40;;;14.80;99.90;;;;;;4937046;29;20052;-69
2021/05/13 00:29:09;;;;;;;7.30;5.60;;;14.90;99.90;;;;;;4937333;29;20039;-71
2021/05/13 00:31:35;;;;;;;8.27;6.18;;;15.00;99.90;;;;;;4937303;29;20108;-70
2021/05/13 00:34:01;;;;;;;7.28;5.72;;;14.90;99.90;;;;;;4937412;29;20027;-71
2021/05/13 00:36:32;;;;;;;7.97;6.78;;;14.80;99.90;;;;;;4920146;29;20039;-71
2021/05/13 00:38:59;;;;;;;9.65;6.53;;;14.60;99.90;;;;;;4937283;29;20466;-70
2021/05/13 00:41:26;;;;;;;10.07;7.18;;;14.70;99.90;;;;;;4937093;29;20406;-71
2021/05/13 00:43:52;;;;;;;8.43;7.05;;;14.60;99.90;;;;;;4937370;29;20031;-70
2021/05/13 00:46:21;;;;;;;8.65;7.55;;;14.50;99.90;;;;;;4935910;29;20374;-71
2021/05/13 00:48:47;;;;;;;9.13;7.68;;;14.50;99.90;;;;;;4937371;29;20443;-71
2021/05/13 00:51:16;;;;;;;9.40;7.07;;;14.50;99.90;;;;;;4937060;29;20430;-71
2021/05/13 00:53:47;;;;;;;10.43;6.93;;;14.50;99.90;;;;;;4936870;29;20016;-71
2021/05/13 00:56:14;;;;;;;10.13;7.22;;;14.50;99.90;;;;;;4937120;29;20027;-69
2021/05/13 00:58:45;;;;;;;8.27;7.20;;;14.50;99.90;;;;;;4936902;29;20107;-71
2021/05/13 01:01:16;;;;;;;9.65;7.53;;;14.60;99.90;;;;;;4935983;29;20034;-71
2021/05/13 01:03:43;;;;;;;9.75;7.82;;;14.70;99.90;;;;;;4935487;29;20500;-71
2021/05/13 01:06:13;;;;;;;9.23;6.43;;;14.70;99.90;;;;;;4936815;29;20028;-71
2021/05/13 01:08:41;;;;;;;10.30;7.03;;;14.90;99.90;;;;;;4936770;29;20028;-71
2021/05/13 01:11:10;;;;;;;9.43;7.38;;;15.00;99.90;;;;;;4919574;29;20059;-71
2021/05/13 01:14:01;;;;;;;8.13;6.72;;;14.90;99.90;;;;;;4936718;29;20024;-71
2021/05/13 01:17:03;;;;;;;10.38;6.97;;;15.00;99.90;;;;;;4936711;29;20393;-71
2021/05/13 01:19:20;;;;;;;10.27;7.45;;;15.00;99.90;;;;;;4933510;29;20040;-71
2021/05/13 01:21:46;;;;;;;9.85;7.22;;;15.00;99.90;;;;;;4919669;29;20028;-70
2021/05/13 01:24:12;;;;;;;9.65;6.90;;;14.90;99.90;;;;;;4936514;29;20024;-71
2021/05/13 01:26:42;;;;;;;7.85;5.60;;;14.90;99.90;;;;;;4936274;29;20091;-71
2021/05/13 01:29:09;;;;;;;10.02;7.43;;;15.00;99.90;;;;;;4936326;29;20059;-72
2021/05/13 01:31:35;;;;;;;8.68;7.78;;;14.80;99.90;;;;;;4936361;29;20447;-71
2021/05/13 01:34:03;;;;;;;11.25;7.53;;;14.70;99.90;;;;;;4936262;29;20113;-70
2021/05/13 01:36:29;;;;;;;8.93;7.85;;;14.80;99.90;;;;;;4936398;29;20026;-71
2021/05/13 01:38:58;;;;;;;10.13;6.68;;;14.70;99.90;;;;;;4936285;29;20111;-71
2021/05/13 01:41:24;;;;;;;8.90;7.20;;;14.70;99.90;;;;;;4936763;29;20459;-70
2021/05/13 01:43:50;;;;;;;8.57;7.13;;;14.80;99.90;;;;;;4936458;29;20083;-71
2021/05/13 01:46:16;;;;;;;9.45;6.90;;;14.70;99.90;;;;;;4936198;29;20045;-71
2021/05/13 01:48:44;;;;;;;10.13;7.05;;;14.70;99.90;;;;;;4936312;29;20486;-70
2021/05/13 01:51:10;;;;;;;10.10;7.60;;;14.70;99.90;;;;;;4936407;29;20083;-71
2021/05/13 01:53:39;;;;;;;10.77;7.50;;;14.60;99.90;;;;;;4936252;29;20019;-71
2021/05/13 01:56:07;;;;;;;9.63;7.43;;;14.50;99.90;;;;;;4936376;29;20024;-71
2021/05/13 01:58:33;;;;;;;9.38;7.72;;;14.40;99.90;;;;;;4919130;29;20501;-71
2021/05/13 02:00:59;;;;;;;8.82;7.60;;;14.30;99.90;;;;;;4919104;29;20035;-70
2021/05/13 02:03:26;;;;;;;9.07;7.22;;;14.30;99.90;;;;;;4936464;29;20545;-71
2021/05/13 02:05:52;;;;;;;10.18;8.48;;;14.20;99.90;;;;;;4919112;29;20036;-71
2021/05/13 02:08:18;;;;;;;10.30;9.00;;;14.10;99.90;;;;;;4936043;29;20027;-71
2021/05/13 02:10:44;;;;;;;13.23;9.55;;;14.00;99.90;;;;;;4935874;29;20032;-72
2021/05/13 02:13:10;;;;;;;11.10;8.18;;;14.10;99.90;;;;;;4939130;29;20099;-72
2021/05/13 02:15:36;;;;;;;9.50;8.57;;;14.10;99.90;;;;;;4938768;29;20497;-71
2021/05/13 02:18:03;;;;;;;9.90;7.75;;;14.10;99.90;;;;;;4939789;29;20020;-71
2021/05/13 02:20:29;;;;;;;10.30;8.25;;;14.10;99.90;;;;;;4940018;29;20035;-71
2021/05/13 02:22:56;;;;;;;9.75;8.73;;;14.30;99.90;;;;;;4939569;29;20016;-71
2021/05/13 02:25:22;;;;;;;9.13;7.72;;;14.30;99.90;;;;;;4939883;29;20051;-72
2021/05/13 02:27:49;;;;;;;9.75;8.32;;;14.40;99.90;;;;;;4939347;29;20066;-71
2021/05/13 02:30:15;;;;;;;11.10;9.15;;;14.40;99.90;;;;;;4939446;29;20027;-71
2021/05/13 02:32:41;;;;;;;9.63;7.68;;;14.40;99.90;;;;;;4939598;29;20376;-72
2021/05/13 02:35:10;;;;;;;9.73;7.70;;;14.50;99.90;;;;;;4939351;29;20106;-71
2021/05/13 02:37:36;;;;;;;9.82;7.60;;;14.60;99.90;;;;;;4939235;29;20022;-72
2021/05/13 02:40:03;;;;;;;8.38;7.10;;;;;;;;;;4939269;29;20058;-70
2021/05/13 02:42:29;;;;;;;8.00;7.15;;;14.60;99.90;;;;;;4922138;29;20024;-71
2021/05/13 02:44:55;;;;;;;9.45;7.60;;;14.70;99.90;;;;;;4939481;29;20083;-71
2021/05/13 02:47:21;;;;;;;10.68;8.90;;;14.60;99.90;;;;;;4939012;29;20043;-71
2021/05/13 02:49:47;;;;;;;9.30;8.40;;;14.50;99.90;;;;;;4939161;29;20560;-71
2021/05/13 02:52:13;;;;;;;10.43;8.20;;;14.40;99.90;;;;;;4922090;29;20028;-72
2021/05/13 02:54:38;;;;;;;10.15;9.13;;;14.40;99.90;;;;;;4938987;29;20028;-70
2021/05/13 02:57:05;;;;;;;10.73;8.43;;;14.40;99.90;;;;;;4938842;29;20027;-71
2021/05/13 02:59:42;;;;;;;11.85;8.43;;;14.50;99.90;;;;;;4939033;29;20024;-70
2021/05/13 03:02:08;;;;;;;8.82;7.90;;;14.50;99.90;;;;;;4939036;29;20034;-71
2021/05/13 03:04:34;;;;;;;10.48;9.20;;;14.50;99.90;;;;;;4938911;29;20028;-71
2021/05/13 03:07:00;;;;;;;11.55;7.68;;;14.40;99.90;;;;;;4938811;29;20426;-71
2021/05/13 03:09:26;;;;;;;13.02;8.23;;;14.40;99.90;;;;;;4938989;29;20363;-71
2021/05/13 03:11:52;;;;;;;9.80;7.50;;;14.40;99.90;;;;;;4938734;29;20058;-71
2021/05/13 03:14:18;;;;;;;10.52;8.30;;;14.40;99.90;;;;;;4938812;29;20467;-69
2021/05/13 03:16:44;;;;;;;11.93;9.63;;;14.30;99.90;;;;;;4938834;29;20024;-72
2021/05/13 03:19:16;;;;;;;11.75;8.98;;;14.30;99.90;;;;;;4938703;29;20024;-71
2021/05/13 03:21:45;;;;;;;15.48;9.15;;;14.30;99.90;;;;;;4921532;29;20039;-71
2021/05/13 03:27:11;;;;;;;11.75;9.35;;;14.30;99.90;;;;;;4908816;29;20047;-71
2021/05/13 03:29:37;;;;;;;;;;;14.10;99.90;;;;;;4939106;29;20489;-71
2021/05/13 03:32:03;;;;;;;10.80;8.73;;;14.20;99.90;;;;;;4938834;29;19907;-71
2021/05/13 03:34:29;;;;;;;10.68;8.93;;;14.20;99.90;;;;;;4938181;29;20023;-70
2021/05/13 03:36:55;;;;;;;10.55;7.90;;;14.00;99.90;;;;;;4938369;29;20039;-71
2021/05/13 03:39:21;;;;;;;10.65;8.65;;;14.10;99.90;;;;;;4938503;29;20027;-71
2021/05/13 03:41:47;;;;;;;10.05;8.88;;;14.00;99.90;;;;;;4938338;29;20028;-70
2021/05/13 03:44:13;;;;;;;10.50;8.48;;;14.10;99.90;;;;;;4938383;29;20028;-72
2021/05/13 03:46:39;;;;;;;11.68;9.00;;;14.00;99.90;;;;;;4938095;29;20031;-72
2021/05/13 03:49:05;;;;;;;11.13;9.70;;;14.00;99.90;;;;;;4938447;29;20135;-69
2021/05/13 03:51:31;;;;;;;10.20;9.13;;;14.00;99.90;;;;;;4937870;29;20386;-71
2021/05/13 03:53:57;;;;;;;11.18;9.80;;;14.10;99.90;;;;;;4938016;29;20493;-71
2021/05/13 03:56:23;;;;;;;13.55;10.13;;;14.10;99.90;;;;;;4936896;29;20106;-72
2021/05/13 03:59:00;;;;;;;13.18;10.35;;;14.10;99.90;;;;;;4937943;29;20027;-70
2021/05/13 04:01:43;;;;;;;14.63;11.38;;;14.20;99.90;;;;;;4938167;29;20035;-71
2021/05/13 04:04:11;;;;;;;14.35;10.18;;;14.20;99.90;;;;;;4937847;29;20055;-72
2021/05/13 04:06:38;;;;;;;18.63;11.63;;;14.20;99.90;;;;;;4937681;29;20110;-70
2021/05/13 04:09:08;;;;;;;15.32;10.00;;;14.10;99.90;;;;;;4937871;29;20028;-72
2021/05/13 04:11:36;;;;;;;13.73;8.90;;;14.10;99.90;;;;;;4937732;29;20039;-71
2021/05/13 04:14:03;;;;;;;14.10;8.48;;;14.10;99.90;;;;;;4937648;29;20031;-71
2021/05/13 04:16:31;;;;;;;11.35;7.30;;;14.00;99.90;;;;;;4937456;29;20520;-70
2021/05/13 04:18:57;;;;;;;9.20;6.70;;;14.00;99.90;;;;;;4937544;29;20027;-69
2021/05/13 04:21:23;;;;;;;10.40;6.28;;;14.00;99.90;;;;;;4937492;29;20052;-71
2021/05/13 04:23:50;;;;;;;9.52;6.53;;;14.20;99.90;;;;;;4937672;29;20036;-71
2021/05/13 04:26:16;;;;;;;8.38;5.63;;;14.10;99.90;;;;;;4937246;29;20035;-70
2021/05/13 04:28:42;;;;;;;13.15;6.20;;;14.20;99.90;;;;;;4937407;29;20123;-71
2021/05/13 04:31:08;;;;;;;9.93;5.35;;;14.20;99.90;;;;;;4937148;29;20059;-71
2021/05/13 04:33:34;;;;;;;9.32;5.85;;;14.10;99.90;;;;;;4937239;29;20027;-72
2021/05/13 04:36:00;;;;;;;12.77;6.30;;;14.10;99.90;;;;;;4937092;29;20079;-71
2021/05/13 04:38:26;;;;;;;9.05;5.82;;;14.10;99.90;;;;;;4937521;29;20015;-69
2021/05/13 04:40:52;;;;;;;8.23;5.05;;;14.20;99.90;;;;;;4937280;29;20027;-71
2021/05/13 04:43:19;;;;;;;8.40;5.07;;;14.20;99.90;;;;;;4937419;29;20026;-71
2021/05/13 04:45:47;;;;;;;8.40;5.60;;;14.10;99.90;;;;;;4936956;29;20024;-71
2021/05/13 04:48:19;;;;;;;7.38;5.13;;;14.20;99.90;;;;;;4937392;29;20028;-70
2021/05/13 04:50:45;;;;;;;6.88;5.03;;;14.20;99.90;;;;;;4937074;29;20031;-70
2021/05/13 04:53:11;;;;;;;9.55;5.72;;;14.20;99.90;;;;;;4937073;29;20075;-72
2021/05/13 04:55:39;;;;;;;8.90;6.03;;;14.20;99.90;;;;;;4936889;29;20493;-69
2021/05/13 04:58:07;;;;;;;8.65;6.68;;;14.20;99.90;;;;;;4919603;29;20457;-71
2021/05/13 05:00:37;;;;;;;7.85;5.75;;;14.20;99.90;;;;;;4936788;29;20027;-71
2021/05/13 05:03:03;;;;;;;8.52;5.65;;;14.30;99.90;;;;;;4937174;29;20105;-69
2021/05/13 05:05:29;;;;;;;10.88;7.22;;;14.30;99.90;;;;;;4936896;29;20023;-71
2021/05/13 05:07:55;;;;;;;9.32;5.35;;;14.40;99.90;;;;;;4936768;29;20047;-71
2021/05/13 05:10:22;;;;;;;6.63;4.32;;;14.50;99.90;;;;;;4936959;29;20028;-71
2021/05/13 05:12:48;;;;;;;6.78;4.80;;;14.50;99.90;;;;;;4936547;29;20110;-71
2021/05/13 05:15:14;;;;;;;8.13;4.78;;;14.60;99.90;;;;;;4936771;29;20067;-69
2021/05/13 05:17:40;;;;;;;11.23;5.53;;;14.70;99.90;;;;;;4936581;29;20026;-71
2021/05/13 05:20:07;;;;;;;8.55;4.45;;;14.60;99.90;;;;;;4936653;29;20475;-69
2021/05/13 05:22:33;;;;;;;10.25;4.63;;;14.60;99.90;;;;;;4919347;29;20478;-69
2021/05/13 05:24:59;;;;;;;5.15;3.95;;;14.60;99.90;;;;;;4936446;29;20028;-71
2021/05/13 05:27:25;;;;;;;6.10;3.83;;;14.70;99.90;;;;;;4915613;29;20052;-71
2021/05/13 05:29:51;;;;;;;7.15;3.55;;;14.70;99.90;;;;;;4917407;29;20356;-70
2021/05/13 05:32:17;;;;;;;6.35;3.67;;;14.80;99.90;;;;;;4917562;29;20052;-71
2021/05/13 05:34:43;;;;;;;7.25;3.83;;;14.70;99.90;;;;;;4917533;29;20024;-71
2021/05/13 05:37:09;;;;;;;7.13;4.30;;;14.80;99.90;;;;;;4917615;29;20493;-72
2021/05/13 05:39:35;;;;;;;9.20;4.88;;;14.80;99.90;;;;;;4917390;29;20024;-74
2021/05/13 05:42:01;;;;;;;8.82;4.65;;;14.90;99.90;;;;;;4916213;29;20034;-74
2021/05/13 05:44:27;;;;;;;9.35;4.85;;;14.90;99.90;;;;;;4917377;29;20028;-74
2021/05/13 05:46:53;;;;;;;8.80;4.20;;;14.90;99.90;;;;;;4919420;29;20376;-72
2021/05/13 05:49:19;;;;;;;6.47;3.80;;;15.00;99.90;;;;;;4923640;29;20043;-72
2021/05/13 05:51:45;;;;;;;7.13;3.50;;;15.00;99.90;;;;;;4923766;29;20027;-72
2021/05/13 05:54:11;;;;;;;6.53;4.13;;;14.90;99.90;;;;;;4923563;29;20104;-72
2021/05/13 05:56:37;;;;;;;7.35;3.80;;;15.00;99.90;;;;;;4923709;29;20082;-72
2021/05/13 05:59:04;;;;;;;5.40;3.58;;;14.80;99.90;;;;;;4923752;29;20047;-73
2021/05/13 06:01:30;;;;;;;7.85;4.60;;;14.90;99.90;;;;;;4923494;29;20352;-72
2021/05/13 06:04:03;;;;;;;9.45;4.60;;;14.90;99.90;;;;;;4923677;29;20028;-74
2021/05/13 06:06:29;;;;;;;8.25;3.78;;;14.80;99.90;;;;;;4925688;29;20371;-73
2021/05/13 06:08:55;;;;;;;9.07;3.75;;;15.00;99.90;;;;;;4923356;29;20497;-73
2021/05/13 06:11:21;;;;;;;5.65;3.30;;;15.10;99.90;;;;;;4923422;29;20030;-72
2021/05/13 06:13:47;;;;;;;3.55;2.55;;;15.20;99.90;;;;;;4923280;29;20024;-71
2021/05/13 06:16:13;;;;;;;5.78;2.60;;;15.30;99.90;;;;;;4923227;29;20131;-72
2021/05/13 06:18:49;;;;;;;5.63;3.78;;;15.30;99.90;;;;;;4923241;29;20027;-71
2021/05/13 06:21:15;;;;;;;4.05;2.60;;;15.30;99.90;;;;;;4923399;29;20035;-71
2021/05/13 06:23:46;;;;;;;4.50;2.30;;;15.30;99.90;;;;;;4922994;29;20099;-72
2021/05/13 06:26:24;;;;;;;4.63;2.38;;;15.30;99.90;;;;;;4925257;29;20024;-72
2021/05/13 06:28:50;;;;;;;5.53;2.47;;;15.30;99.90;;;;;;4942157;29;20059;-72
2021/05/13 06:31:16;;;;;;;4.93;2.58;;;15.50;99.90;;;;;;4942271;29;20062;-72
2021/05/13 06:33:42;;;;;;;4.88;2.30;;;15.70;99.90;;;;;;4942154;29;20083;-72
2021/05/13 06:36:08;;;;;;;5.90;2.78;;;15.80;99.90;;;;;;4942309;29;20478;-71
2021/05/13 06:38:34;;;;;;;4.80;2.05;;;16.00;99.90;;;;;;4942270;29;20020;-71
2021/05/13 06:41:01;;;;;;;5.40;2.28;;;15.90;99.90;;;;;;4924938;29;20023;-72
2021/05/13 06:43:27;;;;;;;4.22;2.40;;;16.00;99.90;;;;;;4942138;29;20027;-70
2021/05/13 06:45:53;;;;;;;4.72;2.15;;;16.10;99.90;;;;;;4942058;29;20050;-71
2021/05/13 06:48:19;;;;;;;4.22;2.20;;;16.10;99.90;;;;;;4942224;29;20410;-71
2021/05/13 06:50:45;;;;;;;5.05;1.88;;;16.40;99.90;;;;;;4942316;29;20086;-71
2021/05/13 06:53:11;;;;;;;3.22;1.38;;;16.60;99.90;;;;;;4941970;29;20030;-71
2021/05/13 06:55:37;;;;;;;4.20;1.45;;;16.70;99.90;;;;;;4941977;29;20031;-71
2021/05/13 06:58:03;;;;;;;4.22;1.55;;;16.70;99.90;;;;;;4939989;29;20039;-70
2021/05/13 07:00:29;;;;;;;3.95;1.52;;;16.80;99.90;;;;;;4939243;29;20043;-70
2021/05/13 07:02:55;;;;;;;2.90;1.70;;;16.80;99.90;;;;;;4921987;29;20028;-72
2021/05/13 07:05:21;;;;;;;2.55;1.50;;;16.90;99.90;;;;;;4938943;29;20363;-72
2021/05/13 07:07:47;;;;;;;3.58;1.30;;;17.00;99.90;;;;;;4938834;29;20075;-71
2021/05/13 07:10:13;;;;;;;2.80;1.42;;;17.00;99.90;;;;;;4938991;29;20063;-71
2021/05/13 07:12:40;;;;;;;4.47;1.38;;;17.00;99.90;;;;;;4938942;29;20493;-71
2021/05/13 07:15:07;;;;;;;3.85;1.52;;;16.90;99.90;;;;;;4938963;29;20038;-72
2021/05/13 07:17:32;;;;;;;3.72;1.75;;;16.90;99.90;;;;;;4938838;29;20075;-70
2021/05/13 07:19:59;;;;;;;1.80;1.15;;;;;;;;;;4939059;29;20036;-70
2021/05/13 07:22:24;;;;;;;3.60;1.00;;;17.50;99.90;;;;;;4938743;29;20099;-70
2021/05/13 07:24:50;;;;;;;2.75;1.20;;;17.70;99.90;;;;;;4938570;29;20103;-71
2021/05/13 07:27:17;;;;;;;3.30;1.00;;;17.80;99.90;;;;;;4938397;29;20079;-71
2021/05/13 07:29:43;;;;;;;3.40;1.10;;;17.90;99.90;;;;;;4938489;29;20028;-78
2021/05/13 07:32:09;;;;;;;4.57;1.08;;;18.00;99.90;;;;;;4938538;29;20114;-71
2021/05/13 07:34:35;;;;;;;3.38;1.02;;;18.20;99.90;;;;;;4938868;29;20028;-75
2021/05/13 07:37:04;;;;;;;2.53;1.35;;;18.40;99.90;;;;;;4938271;29;20024;-71
2021/05/13 07:39:30;;;;;;;3.53;1.38;;;18.80;99.90;;;;;;4938321;29;20019;-73
2021/05/13 07:41:56;;;;;;;3.47;1.60;;;19.00;99.90;;;;;;4938370;29;20023;-70
2021/05/13 07:44:22;;;;;;;3.08;1.02;;;19.30;99.90;;;;;;4938303;29;20028;-71
2021/05/13 07:46:49;;;;;;;2.40;1.05;;;19.40;99.50;;;;;;4937945;29;20074;-70
2021/05/13 07:49:15;;;;;;;5.00;1.30;;;19.30;99.90;;;;;;4936027;29;20035;-69
2021/05/13 07:51:44;;;;;;;2.40;0.80;;;19.50;99.90;;;;;;4935880;29;20167;-70
2021/05/13 07:54:11;;;;;;;3.80;1.73;;;19.60;98.20;;;;;;4935901;29;20027;-73
2021/05/13 07:56:37;;;;;;;3.92;1.65;;;19.60;97.80;;;;;;4938193;29;20047;-69
2021/05/13 07:59:03;;;;;;;4.03;1.90;;;19.80;99.70;;;;;;4938011;29;20114;-71
2021/05/13 08:01:29;;;;;;;3.03;1.52;;;19.70;97.20;;;;;;4937703;29;20060;-69
2021/05/13 08:03:55;;;;;;;2.30;1.17;;;19.90;99.60;;;;;;4936853;29;20051;-70
2021/05/13 08:06:21;;;;;;;3.97;1.33;;;20.00;99.90;;;;;;4937898;29;20102;-70
2021/05/13 08:08:47;;;;;;;4.43;1.70;;;19.90;97.40;;;;;;4937679;29;20512;-69
2021/05/13 08:11:13;;;;;;;2.78;1.17;;;20.10;99.30;;;;;;4937314;29;20023;-69
2021/05/13 08:13:39;;;;;;;2.55;1.30;;;20.20;97.70;;;;;;4937872;29;20030;-69
2021/05/13 08:16:06;;;;;;;4.35;1.38;;;;;;;;;;4937523;29;20058;-70
2021/05/13 08:18:32;;;;;;;3.33;1.42;;;20.60;97.80;;;;;;4920789;29;20042;-69
2021/05/13 08:20:59;;;;;;;2.63;1.20;;;20.60;98.50;;;;;;4937630;29;20036;-74
2021/05/13 08:23:25;;;;;;;3.85;1.40;;;20.40;98.30;;;;;;4920483;29;20079;-70
2021/05/13 08:25:51;;;;;;;3.95;1.40;;;20.30;98.30;;;;;;4937450;29;20015;-69
2021/05/13 08:28:17;;;;;;;4.85;1.83;;;20.20;97.70;;;;;;4937231;29;20055;-70
2021/05/13 08:30:43;;;;;;;6.03;4.10;;;20.20;99.60;;;;;;4937605;29;20426;-76
2021/05/13 08:33:08;;;;;;;6.65;2.85;;;20.00;98.00;;;;;;4937646;29;20034;-78
2021/05/13 08:35:34;;;;;;;6.85;3.65;;;20.00;98.60;;;;;;4937265;29;20434;-72
2021/05/13 08:38:00;;;;;;;8.90;6.97;;;19.90;98.40;;;;;;4937239;29;20382;-71
2021/05/13 08:40:26;;;;;;;9.48;7.40;;;19.70;97.30;;;;;;4937533;29;20067;-75
2021/05/13 08:42:52;;;;;;;10.60;7.60;;;19.60;98.10;;;;;;4920115;29;20043;-72
2021/05/13 08:45:18;;;;;;;9.75;7.40;;;19.50;97.70;;;;;;4920116;29;20075;-71
2021/05/13 08:47:47;;;;;;;9.88;7.07;;;19.50;98.50;;;;;;4937278;29;20032;-74
2021/05/13 08:50:15;;;;;;;9.95;5.50;;;19.50;98.30;;;;;;4937231;29;20027;-75
2021/05/13 08:52:41;;;;;;;7.38;4.68;;;19.50;98.40;;;;;;4919723;29;20030;-72
2021/05/13 08:55:08;;;;;;;7.55;3.97;;;19.50;99.60;;;;;;4936918;29;20031;-74
2021/05/13 08:57:34;;;;;;;6.20;2.80;;;19.40;98.70;;;;;;4936915;29;20051;-72
2021/05/13 09:00:01;;;;;;;8.75;4.78;;;19.40;99.60;;;;;;4935573;29;20028;-72
2021/05/13 09:02:30;;;;;;;11.90;3.88;;;19.40;99.50;;;;;;4936967;29;20344;-74
2021/05/13 09:04:58;;;;;;;11.80;5.05;;;19.30;99.00;;;;;;4936952;29;20422;-70
2021/05/13 09:07:34;;;;;;;6.43;3.05;;;19.20;99.90;;;;;;4936633;29;20028;-76
2021/05/13 09:10:08;;;;;;;6.18;2.22;;;19.10;99.90;;;;;;4937040;29;20486;-76
2021/05/13 09:12:37;;;;;;;10.27;7.03;;;18.90;99.90;;;;;;4936910;29;20035;-70
2021/05/13 09:15:19;;;;;;;9.57;7.20;;;18.80;99.90;;;;;;4936540;29;20036;-77
2021/05/13 09:18:05;;;;;;;8.20;3.88;;;18.70;99.90;;;;;;4936724;29;20035;-72
2021/05/13 09:20:31;;;;;;;4.53;1.95;;;18.70;99.90;;;;;;4935199;29;20027;-72
2021/05/13 09:23:14;;;;;;;3.70;1.70;;;18.60;99.90;;;;;;4935943;29;20606;-76
2021/05/13 09:25:43;;;;;;;4.28;1.70;;;18.60;99.90;;;;;;4936431;29;20470;-76
2021/05/13 09:28:09;;;;;;;2.90;1.60;;;18.50;99.90;;;;;;4936188;29;20051;-72
2021/05/13 09:30:36;;;;;;;2.92;1.40;;;18.50;99.90;;;;;;4936587;29;20030;-78
2021/05/13 09:33:04;;;;;;;2.95;1.45;;;18.40;99.90;;;;;;4936691;29;20485;-76
2021/05/13 09:35:32;;;;;;;5.85;1.33;;;18.40;99.90;;;;;;4936710;29;20038;-73
2021/05/13 09:38:03;;;;;;;2.88;1.30;;;18.50;99.90;;;;;;4936482;29;20020;-71
2021/05/13 09:40:49;;;;;;;4.30;1.42;;;18.50;99.90;;;;;;4936374;29;20028;-76
2021/05/13 09:43:21;;;;;;;4.13;1.30;;;18.50;99.90;;;;;;4936423;29;20027;-78
2021/05/13 09:45:55;;;;;;;2.70;1.25;;;18.40;99.90;;;;;;4936479;29;20101;-78
2021/05/13 09:48:44;;;;;;;2.63;1.30;;;18.40;99.90;;;;;;4936686;29;20028;-77
2021/05/13 09:51:19;;;;;;;3.80;1.50;;;18.50;99.90;;;;;;4936314;29;20127;-78
2021/05/13 09:53:47;;;;;;;4.35;1.67;;;18.50;99.90;;;;;;4919190;29;20056;-77
2021/05/13 09:56:28;;;;;;;2.92;1.30;;;18.60;99.90;;;;;;4936310;29;20024;-78
2021/05/13 09:58:56;;;;;;;2.40;1.30;;;18.60;99.90;;;;;;4936378;29;20052;-75
2021/05/13 10:01:22;;;;;;;1.90;1.15;;;18.50;99.90;;;;;;4936108;29;20039;-78
2021/05/13 10:03:50;;;;;;;3.05;1.30;;;18.50;99.90;;;;;;4936365;29;20019;-76
2021/05/13 10:06:17;;;;;;;2.25;1.23;;;18.50;99.90;;;;;;4919396;29;20459;-78
2021/05/13 10:08:43;;;;;;;4.30;1.38;;;18.50;99.90;;;;;;4919022;29;20038;-77
2021/05/13 10:11:10;;;;;;;1.77;1.10;;;18.30;99.90;;;;;;4936477;29;20026;-81
2021/05/13 10:13:36;;;;;;;3.13;1.50;;;18.20;99.90;;;;;;4936286;29;20020;-81
2021/05/13 10:16:04;;;;;;;4.47;1.45;;;18.20;99.90;;;;;;4936334;29;20051;-76
2021/05/13 10:18:42;;;;;;;4.30;1.52;;;18.20;99.90;;;;;;4936788;29;20035;-79
2021/05/13 10:21:21;;;;;;;4.05;1.30;;;18.20;99.90;;;;;;4936725;29;20032;-78
2021/05/13 10:23:48;;;;;;;3.70;1.40;;;18.10;99.90;;;;;;4936314;29;20028;-76
2021/05/13 10:26:32;;;;;;;5.13;1.75;;;18.10;99.90;;;;;;4918522;29;20024;-75
2021/05/13 10:28:59;;;;;;;3.67;2.03;;;18.20;99.90;;;;;;4935919;29;20043;-79
2021/05/13 10:31:38;;;;;;;3.63;1.50;;;18.20;99.90;;;;;;4936090;29;20032;-79
2021/05/13 10:34:04;;;;;;;6.28;1.77;;;18.20;99.90;;;;;;4938534;29;20052;-75
2021/05/13 10:36:30;;;;;;;5.00;2.42;;;18.10;99.90;;;;;;4922236;29;20026;-80
2021/05/13 10:39:10;;;;;;;4.07;1.60;;;18.10;99.90;;;;;;4922390;29;20020;-76
2021/05/13 10:41:43;;;;;;;5.30;1.65;;;17.90;99.90;;;;;;4939402;29;20035;-82
2021/05/13 10:44:09;;;;;;;3.72;1.83;;;17.80;99.90;;;;;;4939602;29;20115;-75
2021/05/13 10:46:37;;;;;;;4.25;2.17;;;17.70;99.90;;;;;;4939463;29;20103;-79
2021/05/13 10:49:29;;;;;;;3.30;1.33;;;17.70;99.90;;;;;;4939389;29;20024;-75
2021/05/13 10:52:48;;;;;;;4.82;1.40;;;17.40;99.90;;;;;;4935853;29;20561;-77
2021/05/13 10:55:35;;;;;;;6.68;1.50;;;17.30;99.90;;;;;;4880802;29;20052;-77
2021/05/13 10:58:01;;;;;;;4.55;2.00;;;17.30;99.90;;;;;;4880360;29;20116;-78
2021/05/13 11:00:27;;;;;;;3.15;1.73;;;17.30;99.90;;;;;;4880468;29;20553;-79
2021/05/13 11:02:54;;;;;;;4.22;1.70;;;17.50;99.90;;;;;;4880369;29;20033;-74
2021/05/13 11:05:39;;;;;;;5.30;1.80;;;17.60;99.90;;;;;;4880442;29;20109;-74
2021/05/13 11:08:25;;;;;;;5.10;1.50;;;17.40;99.90;;;;;;4864625;29;20037;-75
2021/05/13 11:11:00;;;;;;;3.80;1.52;;;17.80;99.90;;;;;;4864919;29;20037;-78
2021/05/13 11:13:40;;;;;;;3.10;1.30;;;17.90;99.90;;;;;;4880468;29;20033;-78
2021/05/13 11:16:06;;;;;;;2.78;1.00;;;17.90;99.90;;;;;;4880379;29;20085;-79
2021/05/13 11:18:32;;;;;;;2.50;1.00;;;17.80;99.90;;;;;;4880174;29;20093;-79
2021/05/13 11:20:59;;;;;;;1.88;1.00;;;17.90;99.90;;;;;;4880148;29;20044;-81
2021/05/13 11:23:27;;;;;;;1.80;1.00;;;18.40;99.90;;;;;;4880039;29;20057;-77
2021/05/13 11:26:12;;;;;;;2.65;1.00;;;18.70;99.90;;;;;;4880415;29;20037;-77
2021/05/13 11:28:44;;;;;;;4.50;1.00;;;19.10;99.90;;;;;;4864495;29;20089;-78
2021/05/13 11:31:21;;;;;;;2.72;1.30;;;19.00;99.10;;;;;;4917624;29;20036;-77
2021/05/13 11:33:47;;;;;;;3.30;1.15;;;19.30;99.20;;;;;;4921648;29;20381;-81
2021/05/13 11:36:16;;;;;;;2.95;1.10;;;19.20;96.80;;;;;;4938437;29;20024;-76
2021/05/13 11:38:44;;;;;;;1.85;0.70;;;19.10;98.30;;;;;;4938806;29;20024;-83
2021/05/13 11:41:10;;;;;;;3.05;0.90;;;19.20;97.80;;;;;;4938523;29;20024;-81
2021/05/13 11:43:40;;;;;;;2.50;1.40;;;19.40;95.50;;;;;;4937949;29;20031;-78
2021/05/13 11:46:08;;;;;;;2.17;0.88;;;19.10;95.20;;;;;;4920696;29;20028;-84
2021/05/13 11:48:42;;;;;;;1.95;0.85;;;19.50;96.00;;;;;;4938208;29;20530;-83
2021/05/13 11:51:27;;;;;;;1.50;0.82;;;19.80;95.90;;;;;;4938539;29;20028;-83
2021/05/13 11:53:58;;;;;;;3.47;1.20;;;20.10;95.00;;;;;;4921684;29;20058;-78
2021/05/13 11:56:28;;;;;;;2.10;0.60;;;20.50;94.30;;;;;;4938412;29;20035;-84
2021/05/13 11:58:59;;;;;;;1.25;0.65;;;20.90;91.00;;;;;;4938131;29;20086;-85
2021/05/13 12:01:37;;;;;;;1.00;0.73;;;21.40;90.40;;;;;;4938392;29;20031;-85
2021/05/13 12:04:11;;;;;;;2.00;0.90;;;21.90;91.10;;;;;;4921355;29;20051;-76
2021/05/13 12:06:51;;;;;;;1.13;0.68;;;21.90;85.90;;;;;;4921069;29;20058;-85
2021/05/13 12:09:19;;;;;;;1.85;0.80;;;21.50;81.30;;;;;;4938360;29;20051;-78
2021/05/13 12:11:45;;;;;;;4.22;1.20;;;21.30;81.40;;;;;;4938199;29;20031;-85
2021/05/13 12:14:16;;;;;;;1.55;1.00;;;20.70;86.00;;;;;;4938210;29;20024;-85
2021/05/13 12:16:42;;;;;;;3.25;1.08;;;20.40;87.20;;;;;;4921446;29;20031;-87
2021/05/13 12:19:13;;;;;;;1.65;0.90;;;20.40;85.90;;;;;;4921157;29;20106;-77
2021/05/13 12:21:40;;;;;;;2.97;1.20;;;20.70;85.80;;;;;;4938543;29;20063;-80
2021/05/13 12:24:07;;;;;;;0.90;0.80;;;21.00;88.90;;;;;;4921237;29;20371;-91
2021/05/13 12:26:40;;;;;;;1.48;0.90;;;21.30;86.20;;;;;;4933466;29;20055;-92
2021/05/13 12:29:13;;;;;;;2.35;0.80;;;21.60;84.40;;;;;;4919327;29;20374;-84
2021/05/13 12:31:44;;;;;;;3.10;1.30;;;22.00;84.10;;;;;;4917739;29;20119;-77
2021/05/13 12:34:09;;;;;;;2.60;1.00;;;21.50;84.40;;;;;;4918954;29;20048;-78
2021/05/13 12:36:40;;;;;;;2.97;1.13;;;20.90;84.40;;;;;;4918392;29;20115;-82
2021/05/13 12:39:07;;;;;;;4.50;1.45;;;21.00;86.30;;;;;;4917507;29;20118;-80
2021/05/13 12:41:34;;;;;;;3.00;1.05;;;20.90;86.60;;;;;;4918753;29;20498;-82
2021/05/13 12:44:07;;;;;;;3.38;1.20;;;20.60;85.80;;;;;;4919486;29;20411;-78
2021/05/13 12:46:45;;;;;;;3.55;1.30;;;20.90;87.70;;;;;;4919158;29;20043;-79
2021/05/13 12:49:23;;;;;;;1.50;1.00;;;21.20;89.80;;;;;;4918779;29;20063;-85
2021/05/13 12:52:10;;;;;;;1.63;1.10;;;20.90;85.70;;;;;;4918838;29;20032;-78
2021/05/13 12:54:40;;;;;;;3.58;1.15;;;20.90;87.40;;;;;;4919253;29;20111;-78
2021/05/13 12:57:20;;;;;;;2.95;0.93;;;21.30;88.70;;;;;;4918254;29;20020;-77